createdAt,value
2022-10-30T00:02:29.970Z,100.00
2022-10-30T00:05:20.057Z,100.00
2022-10-30T00:08:09.400Z,100.00
2022-10-30T00:10:57.818Z,100.00
2022-10-30T00:13:46.406Z,100.00
2022-10-30T00:16:36.232Z,100.00
2022-10-30T00:19:24.670Z,100.00
2022-10-30T00:22:13.138Z,100.00
2022-10-30T00:25:01.579Z,100.00
2022-10-30T00:27:50.011Z,100.00
2022-10-30T00:30:38.638Z,100.00
2022-10-30T00:33:28.493Z,100.00
2022-10-30T00:36:16.908Z,100.00
2022-10-30T00:39:06.187Z,100.00
2022-10-30T00:41:54.636Z,100.00
2022-10-30T00:44:46.830Z,100.00
2022-10-30T00:47:37.669Z,100.00
2022-10-30T00:50:29.136Z,100.00
2022-10-30T00:53:20.079Z,100.00
2022-10-30T00:56:09.519Z,100.00
2022-10-30T00:59:00.752Z,100.00
2022-10-30T01:01:49.399Z,100.00
2022-10-30T01:04:39.090Z,100.00
2022-10-30T01:07:28.884Z,100.00
2022-10-30T01:10:18.647Z,100.00
2022-10-30T01:13:07.745Z,100.00
2022-10-30T01:16:08.686Z,100.00
2022-10-30T01:19:02.240Z,100.00
2022-10-30T01:21:59.581Z,100.00
2022-10-30T01:24:57.488Z,100.00
2022-10-30T01:27:55.422Z,100.00
2022-10-30T01:30:55.904Z,100.00
2022-10-30T01:33:55.789Z,100.00
2022-10-30T01:36:47.970Z,100.00
2022-10-30T01:39:38.443Z,100.00
2022-10-30T01:42:48.478Z,100.00
2022-10-30T01:45:47.976Z,100.00
2022-10-30T01:48:52.854Z,100.00
2022-10-30T01:51:52.438Z,100.00
2022-10-30T01:54:46.609Z,100.00
2022-10-30T01:57:38.585Z,100.00
2022-10-30T02:00:28.648Z,100.00
2022-10-30T02:03:17.147Z,100.00
2022-10-30T02:06:06.537Z,100.00
2022-10-30T02:08:56.300Z,100.00
2022-10-30T02:11:45.555Z,100.00
2022-10-30T02:14:38.542Z,100.00
2022-10-30T02:17:28.698Z,100.00
2022-10-30T02:20:19.250Z,100.00
2022-10-30T02:23:08.966Z,100.00
2022-10-30T02:25:57.676Z,100.00
2022-10-30T02:28:46.084Z,100.00
2022-10-30T02:31:34.467Z,100.00
2022-10-30T02:34:22.952Z,100.00
2022-10-30T02:37:12.720Z,100.00
2022-10-30T02:40:01.165Z,100.00
2022-10-30T02:42:53.189Z,100.00
2022-10-30T02:45:41.615Z,100.00
2022-10-30T02:48:31.067Z,100.00
2022-10-30T02:51:19.501Z,100.00
2022-10-30T02:54:09.384Z,100.00
2022-10-30T02:56:57.806Z,100.00
2022-10-30T02:59:46.230Z,100.00
2022-10-30T03:02:34.782Z,100.00
2022-10-30T03:05:23.208Z,100.00
2022-10-30T03:08:11.621Z,100.00
2022-10-30T03:11:02.422Z,100.00
2022-10-30T03:13:51.051Z,100.00
2022-10-30T03:16:39.826Z,100.00
2022-10-30T03:19:28.240Z,100.00
2022-10-30T03:22:16.679Z,100.00
2022-10-30T03:25:05.659Z,100.00
2022-10-30T03:27:55.793Z,100.00
2022-10-30T03:30:44.514Z,100.00
2022-10-30T03:33:33.325Z,100.00
2022-10-30T03:36:21.711Z,100.00
2022-10-30T03:39:10.237Z,100.00
2022-10-30T03:41:58.642Z,100.00
2022-10-30T03:44:48.413Z,100.00
2022-10-30T03:47:36.798Z,100.00
2022-10-30T03:50:25.246Z,100.00
2022-10-30T03:53:13.992Z,100.00
2022-10-30T03:56:04.831Z,100.00
2022-10-30T03:58:53.226Z,100.00
2022-10-30T04:01:43.188Z,100.00
2022-10-30T04:04:31.745Z,100.00
2022-10-30T04:07:20.153Z,100.00
2022-10-30T04:10:09.196Z,100.00
2022-10-30T04:13:00.982Z,100.00
2022-10-30T04:15:56.423Z,100.00
2022-10-30T04:18:47.597Z,100.00
2022-10-30T04:21:36.022Z,100.00
2022-10-30T04:24:24.628Z,100.00
2022-10-30T04:27:13.433Z,100.00
2022-10-30T04:30:01.846Z,100.00
2022-10-30T04:32:51.363Z,100.00
2022-10-30T04:35:43.572Z,100.00
2022-10-30T04:38:32.159Z,100.00
2022-10-30T04:41:20.583Z,100.00
2022-10-30T04:44:09.173Z,100.00
2022-10-30T04:46:57.803Z,100.00
2022-10-30T04:49:46.242Z,100.00
2022-10-30T04:52:36.047Z,100.00
2022-10-30T04:55:24.462Z,100.00
2022-10-30T04:58:13.679Z,100.00
2022-10-30T05:01:03.328Z,100.00
2022-10-30T05:03:54.695Z,100.00
2022-10-30T05:06:43.549Z,100.00
2022-10-30T05:09:33.383Z,100.00
2022-10-30T05:12:22.226Z,100.00
2022-10-30T05:15:11.267Z,100.00
2022-10-30T05:18:00.059Z,100.00
2022-10-30T05:20:48.714Z,100.00
2022-10-30T05:23:37.183Z,100.00
2022-10-30T05:26:27.001Z,100.00
2022-10-30T05:29:15.404Z,100.00
2022-10-30T05:32:03.975Z,100.00
2022-10-30T05:34:52.443Z,100.00
2022-10-30T05:37:40.889Z,100.00
2022-10-30T05:40:29.536Z,100.00
2022-10-30T05:43:19.302Z,100.00
2022-10-30T05:46:07.802Z,100.00
2022-10-30T05:48:56.235Z,100.00
2022-10-30T05:51:44.705Z,100.00
2022-10-30T05:54:33.396Z,100.00
2022-10-30T05:57:21.811Z,100.00
2022-10-30T06:00:13.065Z,100.00
2022-10-30T06:03:02.172Z,100.00
2022-10-30T06:05:51.142Z,100.00
2022-10-30T06:08:39.695Z,100.00
2022-10-30T06:11:28.089Z,100.00
2022-10-30T06:14:16.480Z,100.00
2022-10-30T06:17:06.219Z,100.00
2022-10-30T06:19:54.635Z,100.00
2022-10-30T06:22:43.051Z,100.00
2022-10-30T06:25:37.791Z,100.00
2022-10-30T06:28:28.997Z,100.00
2022-10-30T06:31:17.467Z,100.00
2022-10-30T06:34:07.272Z,100.00
2022-10-30T06:36:55.790Z,100.00
2022-10-30T06:39:44.271Z,100.00
2022-10-30T06:42:33.037Z,100.00
2022-10-30T06:45:22.699Z,100.00
2022-10-30T06:48:11.141Z,100.00
2022-10-30T06:51:02.883Z,100.00
2022-10-30T06:53:51.305Z,100.00
2022-10-30T06:56:39.928Z,100.00
2022-10-30T06:59:28.397Z,100.00
2022-10-30T07:02:17.309Z,100.00
2022-10-30T07:05:06.456Z,100.00
2022-10-30T07:07:58.428Z,100.00
2022-10-30T07:10:46.835Z,100.00
2022-10-30T07:13:35.240Z,100.00
2022-10-30T07:16:23.780Z,100.00
2022-10-30T07:19:12.203Z,100.00
2022-10-30T07:22:01.673Z,100.00
2022-10-30T07:24:51.454Z,100.00
2022-10-30T07:27:43.265Z,100.00
2022-10-30T07:30:31.698Z,100.00
2022-10-30T07:33:20.165Z,100.00
2022-10-30T07:36:09.588Z,100.00
2022-10-30T07:38:58.027Z,100.00
2022-10-30T07:41:50.255Z,100.00
2022-10-30T07:44:38.932Z,100.00
2022-10-30T07:47:27.339Z,100.00
2022-10-30T07:50:15.830Z,100.00
2022-10-30T07:53:04.243Z,100.00
2022-10-30T07:55:52.735Z,100.00
2022-10-30T07:58:45.452Z,100.00
2022-10-30T08:01:34.376Z,100.00
2022-10-30T08:04:26.547Z,100.00
2022-10-30T08:07:14.969Z,100.00
2022-10-30T08:10:07.485Z,100.00
2022-10-30T08:12:56.003Z,100.00
2022-10-30T08:15:45.945Z,100.00
2022-10-30T08:18:34.390Z,100.00
2022-10-30T08:21:22.842Z,100.00
2022-10-30T08:24:11.437Z,99.86
2022-10-30T08:26:59.887Z,97.37
2022-10-30T08:29:48.348Z,96.98
2022-10-30T08:32:38.105Z,97.73
2022-10-30T08:35:26.729Z,96.52
2022-10-30T08:38:15.258Z,95.34
2022-10-30T08:41:03.846Z,91.47
2022-10-30T08:43:52.276Z,90.51
2022-10-30T08:46:40.764Z,89.86
2022-10-30T08:49:30.523Z,88.80
2022-10-30T08:52:19.098Z,88.93
2022-10-30T08:55:08.866Z,88.03
2022-10-30T08:57:57.301Z,87.35
2022-10-30T09:00:45.732Z,87.73
2022-10-30T09:03:34.174Z,88.09
2022-10-30T09:06:24.011Z,86.34
2022-10-30T09:09:13.311Z,84.77
2022-10-30T09:12:01.793Z,83.99
2022-10-30T09:14:50.245Z,82.43
2022-10-30T09:17:38.645Z,81.99
2022-10-30T09:20:27.669Z,80.59
2022-10-30T09:23:17.451Z,80.98
2022-10-30T09:26:06.090Z,80.93
2022-10-30T09:28:54.590Z,79.90
2022-10-30T09:31:43.029Z,78.22
2022-10-30T09:34:31.819Z,77.75
2022-10-30T09:37:20.265Z,75.22
2022-10-30T09:40:12.148Z,72.67
2022-10-30T09:43:04.623Z,71.40
2022-10-30T09:46:06.306Z,71.74
2022-10-30T09:49:03.071Z,71.46
2022-10-30T09:52:05.308Z,70.85
2022-10-30T09:55:00.560Z,69.93
2022-10-30T09:57:56.003Z,69.40
2022-10-30T10:00:49.449Z,69.63
2022-10-30T10:06:49.903Z,69.27
2022-10-30T10:09:39.833Z,68.66
2022-10-30T10:12:31.575Z,68.61
2022-10-30T10:15:33.043Z,68.28
2022-10-30T10:18:26.701Z,67.78
2022-10-30T10:21:22.453Z,67.15
2022-10-30T10:24:19.617Z,67.76
2022-10-30T10:27:12.993Z,65.70
2022-10-30T10:30:04.877Z,66.06
2022-10-30T10:33:05.767Z,65.19
2022-10-30T10:36:07.351Z,64.21
2022-10-30T10:39:13.270Z,59.34
2022-10-30T10:42:11.970Z,58.78
2022-10-30T10:45:16.131Z,55.38
2022-10-30T10:48:18.601Z,56.78
2022-10-30T10:51:10.192Z,57.10
2022-10-30T10:54:01.266Z,56.38
2022-10-30T10:56:51.284Z,56.42
2022-10-30T10:59:43.227Z,55.78
2022-10-30T11:02:39.861Z,54.58
2022-10-30T11:05:34.763Z,53.90
2022-10-30T11:08:27.189Z,54.44
2022-10-30T11:11:15.658Z,52.95
2022-10-30T11:14:09.699Z,54.15
2022-10-30T11:17:06.691Z,54.21
2022-10-30T11:20:01.247Z,54.18
2022-10-30T11:22:52.399Z,55.00
2022-10-30T11:25:40.828Z,55.93
2022-10-30T11:28:36.870Z,58.02
2022-10-30T11:31:27.707Z,57.05
2022-10-30T11:34:25.841Z,58.46
2022-10-30T11:37:31.067Z,58.60
2022-10-30T11:40:22.432Z,59.49
2022-10-30T11:43:12.440Z,60.93
2022-10-30T11:46:00.977Z,61.47
2022-10-30T11:48:54.614Z,62.77
2022-10-30T11:51:47.758Z,62.81
2022-10-30T11:54:37.732Z,63.67
2022-10-30T11:57:32.575Z,64.32
2022-10-30T12:00:22.665Z,64.17
2022-10-30T12:03:29.346Z,63.96
2022-10-30T12:06:19.631Z,62.57
2022-10-30T12:09:13.168Z,62.29
2022-10-30T12:12:11.779Z,60.99
2022-10-30T12:15:11.979Z,60.29
2022-10-30T12:18:02.320Z,59.13
2022-10-30T12:20:54.367Z,58.12
2022-10-30T12:23:42.820Z,58.25
2022-10-30T12:26:31.415Z,58.05
2022-10-30T12:29:24.299Z,59.13
2022-10-30T12:32:19.527Z,59.64
2022-10-30T12:35:17.294Z,59.72
2022-10-30T12:38:07.851Z,59.01
2022-10-30T12:41:01.436Z,59.48
2022-10-30T12:43:54.937Z,58.54
2022-10-30T12:46:48.715Z,59.34
2022-10-30T12:49:42.053Z,59.45
2022-10-30T12:52:35.201Z,59.95
2022-10-30T12:55:26.542Z,60.51
2022-10-30T12:58:20.172Z,59.22
2022-10-30T13:01:17.146Z,59.22
2022-10-30T13:04:10.684Z,58.76
2022-10-30T13:07:05.815Z,59.35
2022-10-30T13:10:03.754Z,59.77
2022-10-30T13:12:57.698Z,59.24
2022-10-30T13:15:48.635Z,58.10
2022-10-30T13:18:37.608Z,57.40
2022-10-30T13:21:31.542Z,57.58
2022-10-30T13:24:24.874Z,57.49
2022-10-30T13:27:17.524Z,56.82
2022-10-30T13:30:09.648Z,58.00
2022-10-30T13:33:04.782Z,58.52
2022-10-30T13:35:56.845Z,58.83
2022-10-30T13:38:52.656Z,58.05
2022-10-30T13:41:51.975Z,58.25
2022-10-30T13:44:58.085Z,59.22
2022-10-30T13:47:56.824Z,60.56
2022-10-30T13:51:15.264Z,61.78
2022-10-30T13:54:09.729Z,62.59
2022-10-30T13:57:04.882Z,63.38
2022-10-30T14:00:00.606Z,64.44
2022-10-30T14:03:24.683Z,64.90
2022-10-30T14:06:22.642Z,66.06
2022-10-30T14:09:16.676Z,66.78
2022-10-30T14:12:38.683Z,66.58
2022-10-30T14:15:33.569Z,66.79
2022-10-30T14:18:33.728Z,67.72
2022-10-30T14:21:39.883Z,67.71
2022-10-30T14:24:29.253Z,68.12
2022-10-30T14:27:21.750Z,67.89
2022-10-30T14:30:19.151Z,68.51
2022-10-30T14:33:35.522Z,68.25
2022-10-30T14:36:25.468Z,69.20
2022-10-30T14:39:30.863Z,70.37
2022-10-30T14:42:24.726Z,71.95
2022-10-30T14:45:16.249Z,72.08
2022-10-30T14:48:08.952Z,73.07
2022-10-30T14:51:05.660Z,73.46
2022-10-30T14:53:59.809Z,73.43
2022-10-30T14:56:49.345Z,72.70
2022-10-30T14:59:39.434Z,72.86
2022-10-30T15:02:39.558Z,74.16
2022-10-30T15:05:44.523Z,74.71
2022-10-30T15:08:50.770Z,76.19
2022-10-30T15:11:52.447Z,78.12
2022-10-30T15:14:58.723Z,79.86
2022-10-30T15:17:48.594Z,81.31
2022-10-30T15:20:38.616Z,83.29
2022-10-30T15:23:29.797Z,85.38
2022-10-30T15:26:22.554Z,87.78
2022-10-30T15:29:18.205Z,89.50
2022-10-30T15:32:16.553Z,91.38
2022-10-30T15:35:11.052Z,92.71
2022-10-30T15:38:01.002Z,95.62
2022-10-30T15:40:49.536Z,96.32
2022-10-30T15:43:41.997Z,95.71
2022-10-30T15:46:30.496Z,95.88
2022-10-30T15:49:25.454Z,98.02
2022-10-30T15:52:16.955Z,100.00
2022-10-30T15:55:08.717Z,100.00
2022-10-30T15:58:04.582Z,100.00
2022-10-30T16:00:59.007Z,100.00
2022-10-30T16:03:52.674Z,100.00
2022-10-30T16:06:49.439Z,100.00
2022-10-30T16:09:38.019Z,100.00
2022-10-30T16:12:27.733Z,100.00
2022-10-30T16:15:26.734Z,100.00
2022-10-30T16:18:19.730Z,100.00
2022-10-30T16:21:10.591Z,100.00
2022-10-30T16:24:00.891Z,100.00
2022-10-30T16:27:03.282Z,100.00
2022-10-30T16:29:53.133Z,100.00
2022-10-30T16:32:42.117Z,100.00
2022-10-30T16:35:31.958Z,100.00
2022-10-30T16:38:20.915Z,100.00
2022-10-30T16:41:13.253Z,100.00
2022-10-30T16:44:11.756Z,100.00
2022-10-30T16:47:05.385Z,100.00
2022-10-30T16:49:55.387Z,100.00
2022-10-30T16:52:45.566Z,100.00
2022-10-30T16:55:35.919Z,100.00
2022-10-30T16:58:26.780Z,100.00
2022-10-30T17:01:15.434Z,100.00
2022-10-30T17:04:05.659Z,100.00
2022-10-30T17:07:05.036Z,100.00
2022-10-30T17:09:56.831Z,100.00
2022-10-30T17:12:45.335Z,100.00
2022-10-30T17:15:34.353Z,100.00
2022-10-30T17:18:30.537Z,100.00
2022-10-30T17:21:21.312Z,100.00
2022-10-30T17:24:20.348Z,100.00
2022-10-30T17:27:28.658Z,100.00
2022-10-30T17:30:39.761Z,100.00
2022-10-30T17:33:35.123Z,100.00
2022-10-30T17:36:23.554Z,100.00
2022-10-30T17:39:12.131Z,100.00
2022-10-30T17:42:00.558Z,100.00
2022-10-30T17:44:50.390Z,100.00
2022-10-30T17:47:40.583Z,100.00
2022-10-30T17:50:29.014Z,100.00
2022-10-30T17:53:21.535Z,100.00
2022-10-30T17:56:14.503Z,100.00
2022-10-30T17:59:03.015Z,100.00
2022-10-30T18:01:53.147Z,100.00
2022-10-30T18:04:43.029Z,100.00
2022-10-30T18:07:31.477Z,100.00
2022-10-30T18:10:19.956Z,100.00
2022-10-30T18:13:10.010Z,100.00
2022-10-30T18:15:59.158Z,100.00
2022-10-30T18:18:50.037Z,100.00
2022-10-30T18:21:38.538Z,100.00
2022-10-30T18:24:27.049Z,100.00
2022-10-30T18:27:15.483Z,100.00
2022-10-30T18:30:04.308Z,100.00
2022-10-30T18:32:52.912Z,100.00
2022-10-30T18:35:42.947Z,100.00
2022-10-30T18:38:31.503Z,100.00
2022-10-30T18:41:25.931Z,100.00
2022-10-30T18:44:15.879Z,100.00
2022-10-30T18:47:06.677Z,100.00
2022-10-30T18:49:56.643Z,100.00
2022-10-30T18:52:46.620Z,100.00
2022-10-30T18:55:37.028Z,100.00
2022-10-30T18:58:25.564Z,100.00
2022-10-30T19:01:15.345Z,100.00
2022-10-30T19:04:04.470Z,100.00
2022-10-30T19:06:53.214Z,100.00
2022-10-30T19:09:43.346Z,100.00
2022-10-30T19:12:35.472Z,100.00
2022-10-30T19:15:26.842Z,100.00
2022-10-30T19:18:15.677Z,100.00
2022-10-30T19:21:07.302Z,100.00
2022-10-30T19:23:59.592Z,100.00
2022-10-30T19:26:49.426Z,100.00
2022-10-30T19:29:37.907Z,100.00
2022-10-30T19:32:26.401Z,100.00
2022-10-30T19:35:15.668Z,100.00
2022-10-30T19:38:07.929Z,100.00
2022-10-30T19:40:56.443Z,100.00
2022-10-30T19:43:46.486Z,100.00
2022-10-30T19:46:35.467Z,100.00
2022-10-30T19:49:24.138Z,100.00
2022-10-30T19:52:15.815Z,100.00
2022-10-30T19:55:04.502Z,100.00
2022-10-30T19:57:53.416Z,100.00
2022-10-30T20:00:44.869Z,100.00
2022-10-30T20:03:33.365Z,100.00
2022-10-30T20:06:21.922Z,100.00
2022-10-30T20:09:11.387Z,100.00
2022-10-30T20:11:59.851Z,100.00
2022-10-30T20:14:48.321Z,100.00
2022-10-30T20:17:38.119Z,100.00
2022-10-30T20:20:28.476Z,100.00
2022-10-30T20:23:17.014Z,100.00
2022-10-30T20:26:07.420Z,100.00
2022-10-30T20:28:56.135Z,100.00
2022-10-30T20:31:44.627Z,100.00
2022-10-30T20:34:34.483Z,100.00
2022-10-30T20:37:23.524Z,100.00
2022-10-30T20:40:14.080Z,100.00
2022-10-30T20:43:03.362Z,100.00
2022-10-30T20:45:51.904Z,100.00
2022-10-30T20:48:40.402Z,100.00
2022-10-30T20:51:30.230Z,100.00
2022-10-30T20:54:18.981Z,100.00
2022-10-30T20:57:07.534Z,100.00
2022-10-30T20:59:56.142Z,100.00
2022-10-30T21:02:44.663Z,100.00
2022-10-30T21:05:49.849Z,100.00
2022-10-30T21:08:39.711Z,100.00
2022-10-30T21:11:28.260Z,100.00
2022-10-30T21:14:20.417Z,100.00
2022-10-30T21:17:09.747Z,100.00
2022-10-30T21:19:58.189Z,100.00
2022-10-30T21:22:46.652Z,100.00
2022-10-30T21:25:36.709Z,100.00
2022-10-30T21:28:25.170Z,100.00
2022-10-30T21:31:14.050Z,100.00
2022-10-30T21:34:02.599Z,100.00
2022-10-30T21:36:51.065Z,100.00
2022-10-30T21:39:39.873Z,100.00
2022-10-30T21:42:29.695Z,100.00
2022-10-30T21:45:18.563Z,100.00
2022-10-30T21:48:07.641Z,100.00
2022-10-30T21:50:56.106Z,100.00
2022-10-30T21:53:45.287Z,100.00
2022-10-30T21:56:36.048Z,100.00
2022-10-30T21:59:26.285Z,100.00
2022-10-30T22:02:15.114Z,100.00
2022-10-30T22:05:04.223Z,100.00
2022-10-30T22:07:54.308Z,100.00
2022-10-30T22:10:44.458Z,100.00
2022-10-30T22:13:32.959Z,100.00
2022-10-30T22:16:23.016Z,100.00
2022-10-30T22:19:13.326Z,100.00
2022-10-30T22:22:01.847Z,100.00
2022-10-30T22:24:50.509Z,100.00
2022-10-30T22:27:39.060Z,100.00
2022-10-30T22:30:27.580Z,100.00
2022-10-30T22:33:17.437Z,100.00
2022-10-30T22:36:07.525Z,100.00
2022-10-30T22:38:57.726Z,100.00
2022-10-30T22:41:46.186Z,100.00
2022-10-30T22:44:34.598Z,100.00
2022-10-30T22:47:23.017Z,100.00
2022-10-30T22:50:12.817Z,100.00
2022-10-30T22:53:01.320Z,100.00
2022-10-30T22:55:49.877Z,100.00
2022-10-30T22:58:38.454Z,100.00
2022-10-30T23:01:29.174Z,100.00
2022-10-30T23:04:17.682Z,100.00
2022-10-30T23:07:07.486Z,100.00
2022-10-30T23:09:55.872Z,100.00
2022-10-30T23:12:44.352Z,100.00
2022-10-30T23:15:33.264Z,100.00
2022-10-30T23:18:21.776Z,100.00
2022-10-30T23:21:13.206Z,100.00
2022-10-30T23:24:05.563Z,100.00
2022-10-30T23:26:54.780Z,100.00
2022-10-30T23:29:43.260Z,100.00
2022-10-30T23:32:32.348Z,100.00
2022-10-30T23:35:20.861Z,100.00
2022-10-30T23:38:09.334Z,100.00
2022-10-30T23:40:59.114Z,100.00
2022-10-30T23:43:47.568Z,100.00
2022-10-30T23:46:36.632Z,100.00
2022-10-30T23:49:25.524Z,100.00
2022-10-30T23:52:15.606Z,100.00
2022-10-30T23:55:04.218Z,100.00
2022-10-30T23:57:54.004Z,100.00
